Clorinda Airport


Codes: SATC/CLX
Name: Clorinda Airport
City: Clorinda
Country: Argentina
Elevation: 206 ft.

Photos at Clorinda Airport


   Photos courtesy of SpottingLog. You can add your own sightings and photos by signing up for a free trial today.



No photos found.

Weather at Clorinda Airport


Time (UTC)DescriptionTempratureWindCloud coverageVisibilityPressureHumidity
23-May-2024 21:00Light Rain18°C7 mph, SW100%10000m1010hPa95%
24-May-2024 00:00Light Rain17°C9 mph, SW100%10000m1012hPa96%
24-May-2024 03:00Overcast Clouds16°C7 mph, SW100%10000m1015hPa95%
24-May-2024 06:00Light Rain15°C11 mph, SW100%10000m1017hPa90%
24-May-2024 09:00Broken Clouds14°C9 mph, SW84%10000m1017hPa90%
24-May-2024 12:00Overcast Clouds15°C9 mph, SW85%10000m1020hPa81%
24-May-2024 15:00Light Rain16°C11 mph, SW100%10000m1022hPa74%
24-May-2024 18:00Overcast Clouds15°C9 mph, SW100%10000m1021hPa71%
24-May-2024 21:00Light Rain13°C9 mph, S100%10000m1022hPa74%
25-May-2024 00:00Overcast Clouds12°C7 mph, S100%10000m1024hPa76%
25-May-2024 03:00Overcast Clouds12°C7 mph, S100%10000m1025hPa79%
25-May-2024 06:00Light Rain11°C9 mph, S100%10000m1025hPa82%
25-May-2024 09:00Overcast Clouds11°C7 mph, S100%10000m1025hPa76%
25-May-2024 12:00Overcast Clouds11°C7 mph, S100%10000m1026hPa74%
25-May-2024 15:00Overcast Clouds14°C7 mph, S100%10000m1026hPa60%
25-May-2024 18:00Overcast Clouds14°C7 mph, S100%10000m1024hPa60%
25-May-2024 21:00Overcast Clouds13°C7 mph, S100%10000m1024hPa65%
26-May-2024 00:00Overcast Clouds12°C7 mph, SE100%10000m1025hPa61%
26-May-2024 03:00Overcast Clouds12°C4 mph, SE100%10000m1025hPa59%
26-May-2024 06:00Overcast Clouds12°C4 mph, SE100%10000m1024hPa56%
26-May-2024 09:00Broken Clouds9°C4 mph, S83%10000m1023hPa75%
26-May-2024 12:00Scattered Clouds11°C4 mph, S41%10000m1025hPa68%
26-May-2024 15:00Few Clouds16°C4 mph, S18%10000m1024hPa49%
26-May-2024 18:00Broken Clouds16°C2 mph, S59%10000m1021hPa51%
26-May-2024 21:00Overcast Clouds14°C4 mph, S95%10000m1020hPa60%
27-May-2024 00:00Overcast Clouds12°C4 mph, S88%10000m1021hPa71%
27-May-2024 03:00Broken Clouds13°C4 mph, S84%10000m1022hPa70%
27-May-2024 06:00Overcast Clouds13°C7 mph, SW91%10000m1022hPa70%
27-May-2024 09:00Overcast Clouds12°C7 mph, S100%10000m1022hPa75%
27-May-2024 12:00Overcast Clouds12°C7 mph, SW100%10000m1025hPa77%
27-May-2024 15:00Overcast Clouds15°C9 mph, SW99%10000m1025hPa60%
27-May-2024 18:00Broken Clouds18°C9 mph, SW78%10000m1023hPa47%
27-May-2024 21:00Broken Clouds14°C9 mph, SE78%10000m1024hPa62%
28-May-2024 00:00Scattered Clouds9°C4 mph, S44%10000m1025hPa84%
28-May-2024 03:00Clear Sky8°C4 mph, S0%10000m1025hPa85%
28-May-2024 06:00Clear Sky7°C4 mph, S0%10000m1025hPa86%
28-May-2024 09:00Clear Sky6°C4 mph, S2%10000m1026hPa91%
28-May-2024 12:00Clear Sky9°C4 mph, S3%10000m1027hPa72%
28-May-2024 15:00Clear Sky15°C7 mph, S5%10000m1027hPa48%
28-May-2024 18:00Clear Sky17°C7 mph, S5%10000m1024hPa45%